sensor_id;sensor_type;location;lat;lon;timestamp;P1;durP1;ratioP1;P2;durP2;ratioP2
29500;SDS011;16450;50.288;10.966;2023-09-07T00:00:06;5.83;;;4.10;;
29500;SDS011;16450;50.288;10.966;2023-09-07T00:03:12;9.27;;;4.50;;
29500;SDS011;16450;50.288;10.966;2023-09-07T00:06:15;6.20;;;4.40;;
29500;SDS011;16450;50.288;10.966;2023-09-07T00:09:16;5.67;;;4.07;;
29500;SDS011;16450;50.288;10.966;2023-09-07T00:12:20;5.90;;;4.20;;
29500;SDS011;16450;50.288;10.966;2023-09-07T00:15:21;6.43;;;4.00;;
29500;SDS011;16450;50.288;10.966;2023-09-07T00:18:23;8.00;;;4.47;;
29500;SDS011;16450;50.288;10.966;2023-09-07T00:21:25;6.13;;;4.33;;
29500;SDS011;16450;50.288;10.966;2023-09-07T00:24:27;6.70;;;4.50;;
29500;SDS011;16450;50.288;10.966;2023-09-07T00:27:28;5.67;;;4.30;;
29500;SDS011;16450;50.288;10.966;2023-09-07T00:30:31;6.50;;;4.33;;
29500;SDS011;16450;50.288;10.966;2023-09-07T00:33:32;6.90;;;4.27;;
29500;SDS011;16450;50.288;10.966;2023-09-07T00:36:34;7.77;;;4.40;;
29500;SDS011;16450;50.288;10.966;2023-09-07T00:39:36;6.53;;;4.33;;
29500;SDS011;16450;50.288;10.966;2023-09-07T00:42:38;6.67;;;4.70;;
29500;SDS011;16450;50.288;10.966;2023-09-07T00:45:40;7.33;;;4.30;;
29500;SDS011;16450;50.288;10.966;2023-09-07T00:48:42;5.07;;;4.07;;
29500;SDS011;16450;50.288;10.966;2023-09-07T00:51:44;6.03;;;4.40;;
29500;SDS011;16450;50.288;10.966;2023-09-07T00:54:46;5.70;;;4.33;;
29500;SDS011;16450;50.288;10.966;2023-09-07T00:57:48;8.27;;;4.83;;
29500;SDS011;16450;50.288;10.966;2023-09-07T01:00:50;6.17;;;4.20;;
29500;SDS011;16450;50.288;10.966;2023-09-07T01:03:52;5.93;;;4.57;;
29500;SDS011;16450;50.288;10.966;2023-09-07T01:06:56;6.20;;;4.10;;
29500;SDS011;16450;50.288;10.966;2023-09-07T01:10:04;5.87;;;4.17;;
29500;SDS011;16450;50.288;10.966;2023-09-07T01:13:07;7.60;;;4.50;;
29500;SDS011;16450;50.288;10.966;2023-09-07T01:16:09;6.60;;;4.87;;
29500;SDS011;16450;50.288;10.966;2023-09-07T01:19:13;5.23;;;4.30;;
29500;SDS011;16450;50.288;10.966;2023-09-07T01:22:14;5.70;;;4.40;;
29500;SDS011;16450;50.288;10.966;2023-09-07T01:25:18;6.93;;;4.47;;
29500;SDS011;16450;50.288;10.966;2023-09-07T01:28:20;7.07;;;4.77;;
29500;SDS011;16450;50.288;10.966;2023-09-07T01:31:23;8.40;;;4.80;;
29500;SDS011;16450;50.288;10.966;2023-09-07T01:34:24;8.27;;;4.80;;
29500;SDS011;16450;50.288;10.966;2023-09-07T01:37:27;6.63;;;4.47;;
29500;SDS011;16450;50.288;10.966;2023-09-07T01:40:28;5.13;;;4.57;;
29500;SDS011;16450;50.288;10.966;2023-09-07T01:43:30;6.67;;;5.30;;
29500;SDS011;16450;50.288;10.966;2023-09-07T01:46:32;5.33;;;4.53;;
29500;SDS011;16450;50.288;10.966;2023-09-07T01:49:34;6.97;;;4.70;;
29500;SDS011;16450;50.288;10.966;2023-09-07T01:52:36;6.27;;;4.80;;
29500;SDS011;16450;50.288;10.966;2023-09-07T01:55:38;6.93;;;4.30;;
29500;SDS011;16450;50.288;10.966;2023-09-07T01:58:40;6.20;;;4.30;;
29500;SDS011;16450;50.288;10.966;2023-09-07T02:01:42;8.17;;;4.27;;
29500;SDS011;16450;50.288;10.966;2023-09-07T02:04:44;5.80;;;4.50;;
29500;SDS011;16450;50.288;10.966;2023-09-07T02:07:47;7.43;;;4.73;;
29500;SDS011;16450;50.288;10.966;2023-09-07T02:10:51;6.13;;;4.33;;
29500;SDS011;16450;50.288;10.966;2023-09-07T02:13:53;6.63;;;4.37;;
29500;SDS011;16450;50.288;10.966;2023-09-07T02:16:55;6.50;;;4.70;;
29500;SDS011;16450;50.288;10.966;2023-09-07T02:19:57;6.73;;;4.83;;
29500;SDS011;16450;50.288;10.966;2023-09-07T02:23:00;5.50;;;4.47;;
29500;SDS011;16450;50.288;10.966;2023-09-07T02:26:02;5.63;;;4.27;;
29500;SDS011;16450;50.288;10.966;2023-09-07T02:29:04;5.90;;;4.60;;
29500;SDS011;16450;50.288;10.966;2023-09-07T02:32:08;7.33;;;4.30;;
29500;SDS011;16450;50.288;10.966;2023-09-07T02:35:10;6.00;;;4.43;;
29500;SDS011;16450;50.288;10.966;2023-09-07T02:38:12;6.00;;;4.30;;
29500;SDS011;16450;50.288;10.966;2023-09-07T02:41:14;6.27;;;4.60;;
29500;SDS011;16450;50.288;10.966;2023-09-07T02:44:16;7.00;;;4.63;;
29500;SDS011;16450;50.288;10.966;2023-09-07T02:47:18;6.80;;;4.80;;
29500;SDS011;16450;50.288;10.966;2023-09-07T02:50:20;7.23;;;4.57;;
29500;SDS011;16450;50.288;10.966;2023-09-07T02:53:22;7.40;;;4.83;;
29500;SDS011;16450;50.288;10.966;2023-09-07T02:56:24;5.60;;;4.40;;
29500;SDS011;16450;50.288;10.966;2023-09-07T02:59:26;7.17;;;4.57;;
29500;SDS011;16450;50.288;10.966;2023-09-07T03:02:28;7.97;;;4.60;;
29500;SDS011;16450;50.288;10.966;2023-09-07T03:05:30;8.47;;;5.17;;
29500;SDS011;16450;50.288;10.966;2023-09-07T03:08:32;7.10;;;4.87;;
29500;SDS011;16450;50.288;10.966;2023-09-07T03:11:34;7.60;;;4.63;;
29500;SDS011;16450;50.288;10.966;2023-09-07T03:14:36;9.10;;;4.70;;
29500;SDS011;16450;50.288;10.966;2023-09-07T03:17:38;6.60;;;4.67;;
29500;SDS011;16450;50.288;10.966;2023-09-07T03:20:40;5.93;;;4.70;;
29500;SDS011;16450;50.288;10.966;2023-09-07T03:23:42;4.93;;;4.40;;
29500;SDS011;16450;50.288;10.966;2023-09-07T03:26:46;6.17;;;4.77;;
29500;SDS011;16450;50.288;10.966;2023-09-07T03:29:49;6.70;;;4.50;;
29500;SDS011;16450;50.288;10.966;2023-09-07T03:32:53;5.63;;;4.50;;
29500;SDS011;16450;50.288;10.966;2023-09-07T03:35:55;6.80;;;4.90;;
29500;SDS011;16450;50.288;10.966;2023-09-07T03:39:00;5.70;;;4.70;;
29500;SDS011;16450;50.288;10.966;2023-09-07T03:42:02;8.47;;;4.90;;
29500;SDS011;16450;50.288;10.966;2023-09-07T03:45:04;5.80;;;4.70;;
29500;SDS011;16450;50.288;10.966;2023-09-07T03:48:06;6.77;;;5.10;;
29500;SDS011;16450;50.288;10.966;2023-09-07T03:51:08;6.97;;;4.70;;
29500;SDS011;16450;50.288;10.966;2023-09-07T03:54:10;10.17;;;4.87;;
29500;SDS011;16450;50.288;10.966;2023-09-07T03:57:11;6.47;;;4.93;;
29500;SDS011;16450;50.288;10.966;2023-09-07T04:00:13;8.80;;;5.10;;
29500;SDS011;16450;50.288;10.966;2023-09-07T04:03:15;6.80;;;5.00;;
29500;SDS011;16450;50.288;10.966;2023-09-07T04:06:17;8.40;;;4.77;;
29500;SDS011;16450;50.288;10.966;2023-09-07T04:09:20;7.37;;;5.20;;
29500;SDS011;16450;50.288;10.966;2023-09-07T04:12:22;8.83;;;5.97;;
29500;SDS011;16450;50.288;10.966;2023-09-07T04:15:24;6.63;;;5.30;;
29500;SDS011;16450;50.288;10.966;2023-09-07T04:18:27;6.97;;;5.30;;
29500;SDS011;16450;50.288;10.966;2023-09-07T04:21:30;7.60;;;5.80;;
29500;SDS011;16450;50.288;10.966;2023-09-07T04:24:32;8.77;;;5.80;;
29500;SDS011;16450;50.288;10.966;2023-09-07T04:27:34;7.30;;;5.43;;
29500;SDS011;16450;50.288;10.966;2023-09-07T04:30:39;7.60;;;5.37;;
29500;SDS011;16450;50.288;10.966;2023-09-07T04:33:41;9.93;;;5.80;;
29500;SDS011;16450;50.288;10.966;2023-09-07T04:36:43;8.37;;;6.17;;
29500;SDS011;16450;50.288;10.966;2023-09-07T04:39:45;9.53;;;5.80;;
29500;SDS011;16450;50.288;10.966;2023-09-07T04:42:48;9.17;;;5.67;;
29500;SDS011;16450;50.288;10.966;2023-09-07T04:45:50;7.17;;;5.40;;
29500;SDS011;16450;50.288;10.966;2023-09-07T04:48:52;9.70;;;6.00;;
29500;SDS011;16450;50.288;10.966;2023-09-07T04:51:54;7.90;;;5.47;;
29500;SDS011;16450;50.288;10.966;2023-09-07T04:54:56;7.47;;;5.20;;
29500;SDS011;16450;50.288;10.966;2023-09-07T04:57:57;7.30;;;5.10;;
29500;SDS011;16450;50.288;10.966;2023-09-07T05:01:03;7.53;;;5.53;;
29500;SDS011;16450;50.288;10.966;2023-09-07T05:04:05;7.17;;;5.00;;
29500;SDS011;16450;50.288;10.966;2023-09-07T05:07:07;8.30;;;5.20;;
29500;SDS011;16450;50.288;10.966;2023-09-07T05:10:09;8.70;;;5.27;;
29500;SDS011;16450;50.288;10.966;2023-09-07T05:13:13;7.00;;;4.77;;
29500;SDS011;16450;50.288;10.966;2023-09-07T05:16:15;8.33;;;4.70;;
29500;SDS011;16450;50.288;10.966;2023-09-07T05:19:17;9.93;;;5.70;;
29500;SDS011;16450;50.288;10.966;2023-09-07T05:22:19;6.90;;;5.07;;
29500;SDS011;16450;50.288;10.966;2023-09-07T05:25:23;7.30;;;5.20;;
29500;SDS011;16450;50.288;10.966;2023-09-07T05:28:25;6.93;;;4.97;;
29500;SDS011;16450;50.288;10.966;2023-09-07T05:31:26;7.57;;;5.07;;
29500;SDS011;16450;50.288;10.966;2023-09-07T05:34:28;6.70;;;5.03;;
29500;SDS011;16450;50.288;10.966;2023-09-07T05:37:31;6.20;;;4.87;;
29500;SDS011;16450;50.288;10.966;2023-09-07T05:40:36;7.83;;;5.60;;
29500;SDS011;16450;50.288;10.966;2023-09-07T05:43:42;5.93;;;4.80;;
29500;SDS011;16450;50.288;10.966;2023-09-07T05:46:44;6.50;;;5.03;;
29500;SDS011;16450;50.288;10.966;2023-09-07T05:49:47;6.60;;;5.27;;
29500;SDS011;16450;50.288;10.966;2023-09-07T05:52:48;8.57;;;5.57;;
29500;SDS011;16450;50.288;10.966;2023-09-07T05:55:50;7.77;;;5.13;;
29500;SDS011;16450;50.288;10.966;2023-09-07T05:58:52;8.80;;;5.93;;
29500;SDS011;16450;50.288;10.966;2023-09-07T06:01:54;8.57;;;6.27;;
29500;SDS011;16450;50.288;10.966;2023-09-07T06:04:56;12.10;;;7.07;;
29500;SDS011;16450;50.288;10.966;2023-09-07T06:07:58;18.83;;;7.13;;
29500;SDS011;16450;50.288;10.966;2023-09-07T06:10:59;15.30;;;7.00;;
29500;SDS011;16450;50.288;10.966;2023-09-07T06:14:01;10.43;;;6.40;;
29500;SDS011;16450;50.288;10.966;2023-09-07T06:17:04;9.60;;;5.73;;
29500;SDS011;16450;50.288;10.966;2023-09-07T06:20:06;8.00;;;5.60;;
29500;SDS011;16450;50.288;10.966;2023-09-07T06:23:08;7.03;;;5.20;;
29500;SDS011;16450;50.288;10.966;2023-09-07T06:26:10;7.63;;;5.27;;
29500;SDS011;16450;50.288;10.966;2023-09-07T06:29:12;8.97;;;5.40;;
29500;SDS011;16450;50.288;10.966;2023-09-07T06:32:14;7.87;;;5.67;;
29500;SDS011;16450;50.288;10.966;2023-09-07T06:35:16;8.43;;;5.67;;
29500;SDS011;16450;50.288;10.966;2023-09-07T06:38:19;7.23;;;5.27;;
29500;SDS011;16450;50.288;10.966;2023-09-07T06:41:21;7.87;;;4.90;;
29500;SDS011;16450;50.288;10.966;2023-09-07T06:44:23;8.00;;;4.93;;
29500;SDS011;16450;50.288;10.966;2023-09-07T06:47:25;6.13;;;4.50;;
29500;SDS011;16450;50.288;10.966;2023-09-07T06:50:30;10.47;;;5.37;;
29500;SDS011;16450;50.288;10.966;2023-09-07T06:53:32;11.17;;;5.27;;
29500;SDS011;16450;50.288;10.966;2023-09-07T06:56:53;7.47;;;4.80;;
29500;SDS011;16450;50.288;10.966;2023-09-07T06:59:55;8.07;;;4.83;;
29500;SDS011;16450;50.288;10.966;2023-09-07T07:02:57;7.57;;;4.90;;
29500;SDS011;16450;50.288;10.966;2023-09-07T07:06:00;5.40;;;4.17;;
29500;SDS011;16450;50.288;10.966;2023-09-07T07:09:02;7.37;;;4.17;;
29500;SDS011;16450;50.288;10.966;2023-09-07T07:12:04;5.27;;;3.90;;
29500;SDS011;16450;50.288;10.966;2023-09-07T07:15:06;4.73;;;4.03;;
29500;SDS011;16450;50.288;10.966;2023-09-07T07:18:08;10.33;;;4.37;;
29500;SDS011;16450;50.288;10.966;2023-09-07T07:21:11;7.63;;;4.60;;
29500;SDS011;16450;50.288;10.966;2023-09-07T07:24:12;7.50;;;4.07;;
29500;SDS011;16450;50.288;10.966;2023-09-07T07:27:15;6.40;;;4.20;;
29500;SDS011;16450;50.288;10.966;2023-09-07T07:30:17;7.03;;;3.93;;
29500;SDS011;16450;50.288;10.966;2023-09-07T07:33:19;6.10;;;4.50;;
29500;SDS011;16450;50.288;10.966;2023-09-07T07:36:22;7.50;;;3.97;;
29500;SDS011;16450;50.288;10.966;2023-09-07T07:39:24;5.17;;;3.80;;
29500;SDS011;16450;50.288;10.966;2023-09-07T07:42:26;7.53;;;4.00;;
29500;SDS011;16450;50.288;10.966;2023-09-07T07:45:28;5.60;;;3.87;;
29500;SDS011;16450;50.288;10.966;2023-09-07T07:48:30;6.07;;;3.73;;
29500;SDS011;16450;50.288;10.966;2023-09-07T07:51:31;5.87;;;4.30;;
29500;SDS011;16450;50.288;10.966;2023-09-07T07:54:33;5.13;;;3.83;;
29500;SDS011;16450;50.288;10.966;2023-09-07T07:57:36;4.37;;;3.70;;
29500;SDS011;16450;50.288;10.966;2023-09-07T08:00:38;4.83;;;3.70;;
29500;SDS011;16450;50.288;10.966;2023-09-07T08:03:42;4.40;;;3.80;;
29500;SDS011;16450;50.288;10.966;2023-09-07T08:06:44;5.67;;;4.00;;
29500;SDS011;16450;50.288;10.966;2023-09-07T08:09:46;5.50;;;3.80;;
29500;SDS011;16450;50.288;10.966;2023-09-07T08:12:51;6.37;;;3.70;;
29500;SDS011;16450;50.288;10.966;2023-09-07T08:15:56;6.10;;;3.87;;
29500;SDS011;16450;50.288;10.966;2023-09-07T08:18:58;6.67;;;3.33;;
29500;SDS011;16450;50.288;10.966;2023-09-07T08:22:00;4.20;;;3.47;;
29500;SDS011;16450;50.288;10.966;2023-09-07T08:25:05;4.63;;;3.78;;
29500;SDS011;16450;50.288;10.966;2023-09-07T08:28:07;5.13;;;3.90;;
29500;SDS011;16450;50.288;10.966;2023-09-07T08:31:09;4.55;;;3.53;;
29500;SDS011;16450;50.288;10.966;2023-09-07T08:34:12;6.13;;;3.90;;
29500;SDS011;16450;50.288;10.966;2023-09-07T08:37:14;4.47;;;3.42;;
29500;SDS011;16450;50.288;10.966;2023-09-07T08:40:16;3.70;;;3.10;;
29500;SDS011;16450;50.288;10.966;2023-09-07T08:43:19;4.18;;;3.20;;
29500;SDS011;16450;50.288;10.966;2023-09-07T08:46:22;4.45;;;3.08;;
29500;SDS011;16450;50.288;10.966;2023-09-07T08:49:25;3.95;;;3.33;;
29500;SDS011;16450;50.288;10.966;2023-09-07T08:52:29;4.68;;;3.03;;
29500;SDS011;16450;50.288;10.966;2023-09-07T08:55:31;4.10;;;3.33;;
29500;SDS011;16450;50.288;10.966;2023-09-07T08:58:33;3.75;;;3.20;;
29500;SDS011;16450;50.288;10.966;2023-09-07T09:01:35;3.85;;;3.13;;
29500;SDS011;16450;50.288;10.966;2023-09-07T09:04:38;3.65;;;2.90;;
29500;SDS011;16450;50.288;10.966;2023-09-07T09:07:40;3.67;;;3.13;;
29500;SDS011;16450;50.288;10.966;2023-09-07T09:10:42;4.55;;;3.20;;
29500;SDS011;16450;50.288;10.966;2023-09-07T09:13:45;5.45;;;3.00;;
29500;SDS011;16450;50.288;10.966;2023-09-07T09:16:48;5.55;;;2.97;;
29500;SDS011;16450;50.288;10.966;2023-09-07T09:19:53;4.65;;;2.97;;
29500;SDS011;16450;50.288;10.966;2023-09-07T09:22:55;3.60;;;2.75;;
29500;SDS011;16450;50.288;10.966;2023-09-07T09:25:58;5.60;;;2.90;;
29500;SDS011;16450;50.288;10.966;2023-09-07T09:29:01;5.35;;;3.15;;
29500;SDS011;16450;50.288;10.966;2023-09-07T09:32:03;4.07;;;2.85;;
29500;SDS011;16450;50.288;10.966;2023-09-07T09:35:06;2.92;;;2.63;;
29500;SDS011;16450;50.288;10.966;2023-09-07T09:38:09;3.25;;;2.55;;
29500;SDS011;16450;50.288;10.966;2023-09-07T09:41:11;3.08;;;2.47;;
29500;SDS011;16450;50.288;10.966;2023-09-07T09:44:14;7.18;;;2.70;;
29500;SDS011;16450;50.288;10.966;2023-09-07T09:47:17;3.40;;;2.70;;
29500;SDS011;16450;50.288;10.966;2023-09-07T09:50:22;2.53;;;2.33;;
29500;SDS011;16450;50.288;10.966;2023-09-07T09:53:25;4.55;;;2.70;;
29500;SDS011;16450;50.288;10.966;2023-09-07T09:56:28;5.32;;;2.70;;
29500;SDS011;16450;50.288;10.966;2023-09-07T09:59:30;3.15;;;2.70;;
29500;SDS011;16450;50.288;10.966;2023-09-07T10:02:35;3.25;;;2.80;;
29500;SDS011;16450;50.288;10.966;2023-09-07T10:05:39;4.68;;;2.40;;
29500;SDS011;16450;50.288;10.966;2023-09-07T10:08:43;3.47;;;2.78;;
29500;SDS011;16450;50.288;10.966;2023-09-07T10:11:57;3.20;;;2.38;;
29500;SDS011;16450;50.288;10.966;2023-09-07T10:15:01;3.67;;;2.70;;
29500;SDS011;16450;50.288;10.966;2023-09-07T10:18:05;3.45;;;2.60;;
29500;SDS011;16450;50.288;10.966;2023-09-07T10:21:11;4.28;;;2.63;;
29500;SDS011;16450;50.288;10.966;2023-09-07T10:24:23;3.30;;;2.40;;
29500;SDS011;16450;50.288;10.966;2023-09-07T10:27:36;3.10;;;2.33;;
29500;SDS011;16450;50.288;10.966;2023-09-07T10:30:39;3.00;;;2.50;;
29500;SDS011;16450;50.288;10.966;2023-09-07T10:33:43;3.63;;;2.63;;
29500;SDS011;16450;50.288;10.966;2023-09-07T10:36:45;3.00;;;2.60;;
29500;SDS011;16450;50.288;10.966;2023-09-07T10:39:47;4.63;;;2.33;;
29500;SDS011;16450;50.288;10.966;2023-09-07T10:43:00;4.25;;;2.72;;
29500;SDS011;16450;50.288;10.966;2023-09-07T10:46:03;2.30;;;2.10;;
29500;SDS011;16450;50.288;10.966;2023-09-07T10:49:11;3.08;;;2.53;;
29500;SDS011;16450;50.288;10.966;2023-09-07T10:52:13;3.78;;;2.50;;
29500;SDS011;16450;50.288;10.966;2023-09-07T10:55:15;2.42;;;2.22;;
29500;SDS011;16450;50.288;10.966;2023-09-07T10:58:30;4.30;;;2.78;;
29500;SDS011;16450;50.288;10.966;2023-09-07T11:01:36;3.58;;;2.30;;
29500;SDS011;16450;50.288;10.966;2023-09-07T11:04:38;3.78;;;2.40;;
29500;SDS011;16450;50.288;10.966;2023-09-07T11:07:40;3.65;;;2.30;;
29500;SDS011;16450;50.288;10.966;2023-09-07T11:10:44;2.92;;;2.63;;
29500;SDS011;16450;50.288;10.966;2023-09-07T11:13:46;2.97;;;2.47;;
29500;SDS011;16450;50.288;10.966;2023-09-07T11:16:49;3.72;;;2.72;;
29500;SDS011;16450;50.288;10.966;2023-09-07T11:19:52;2.83;;;2.50;;
29500;SDS011;16450;50.288;10.966;2023-09-07T11:22:54;3.05;;;2.58;;
29500;SDS011;16450;50.288;10.966;2023-09-07T11:26:07;5.45;;;2.80;;
29500;SDS011;16450;50.288;10.966;2023-09-07T11:29:09;4.35;;;2.55;;
29500;SDS011;16450;50.288;10.966;2023-09-07T11:32:11;4.55;;;2.83;;
29500;SDS011;16450;50.288;10.966;2023-09-07T11:35:14;4.25;;;2.50;;
29500;SDS011;16450;50.288;10.966;2023-09-07T11:38:17;5.30;;;2.80;;
29500;SDS011;16450;50.288;10.966;2023-09-07T11:41:19;3.15;;;2.53;;
29500;SDS011;16450;50.288;10.966;2023-09-07T11:44:21;3.53;;;2.65;;
29500;SDS011;16450;50.288;10.966;2023-09-07T11:47:22;3.95;;;2.50;;
29500;SDS011;16450;50.288;10.966;2023-09-07T11:50:24;3.80;;;2.33;;
29500;SDS011;16450;50.288;10.966;2023-09-07T11:53:26;2.70;;;2.38;;
29500;SDS011;16450;50.288;10.966;2023-09-07T11:56:28;3.53;;;2.53;;
29500;SDS011;16450;50.288;10.966;2023-09-07T11:59:30;3.80;;;2.35;;
29500;SDS011;16450;50.288;10.966;2023-09-07T12:02:48;3.17;;;2.80;;
29500;SDS011;16450;50.288;10.966;2023-09-07T12:05:51;2.83;;;2.53;;
29500;SDS011;16450;50.288;10.966;2023-09-07T12:09:03;3.75;;;2.40;;
29500;SDS011;16450;50.288;10.966;2023-09-07T12:12:06;2.78;;;2.30;;
29500;SDS011;16450;50.288;10.966;2023-09-07T12:15:08;4.57;;;2.85;;
29500;SDS011;16450;50.288;10.966;2023-09-07T12:18:12;3.50;;;2.70;;
29500;SDS011;16450;50.288;10.966;2023-09-07T12:21:14;3.63;;;2.15;;
29500;SDS011;16450;50.288;10.966;2023-09-07T12:24:16;4.28;;;2.53;;
29500;SDS011;16450;50.288;10.966;2023-09-07T12:27:18;4.32;;;2.50;;
29500;SDS011;16450;50.288;10.966;2023-09-07T12:30:21;3.42;;;2.50;;
29500;SDS011;16450;50.288;10.966;2023-09-07T12:33:25;2.88;;;2.42;;
29500;SDS011;16450;50.288;10.966;2023-09-07T12:36:27;4.85;;;2.40;;
29500;SDS011;16450;50.288;10.966;2023-09-07T12:39:34;3.97;;;2.50;;
29500;SDS011;16450;50.288;10.966;2023-09-07T12:42:36;2.88;;;2.40;;
29500;SDS011;16450;50.288;10.966;2023-09-07T12:45:39;3.53;;;2.45;;
29500;SDS011;16450;50.288;10.966;2023-09-07T12:48:44;3.22;;;2.47;;
29500;SDS011;16450;50.288;10.966;2023-09-07T12:51:46;2.95;;;2.33;;
29500;SDS011;16450;50.288;10.966;2023-09-07T12:54:48;3.08;;;2.28;;
29500;SDS011;16450;50.288;10.966;2023-09-07T12:57:50;2.80;;;2.50;;
29500;SDS011;16450;50.288;10.966;2023-09-07T13:00:52;3.47;;;2.53;;
29500;SDS011;16450;50.288;10.966;2023-09-07T13:03:54;3.08;;;2.63;;
29500;SDS011;16450;50.288;10.966;2023-09-07T13:06:55;3.50;;;2.45;;
29500;SDS011;16450;50.288;10.966;2023-09-07T13:09:57;2.47;;;2.20;;
29500;SDS011;16450;50.288;10.966;2023-09-07T13:12:59;3.42;;;2.42;;
29500;SDS011;16450;50.288;10.966;2023-09-07T13:16:01;3.40;;;2.42;;
29500;SDS011;16450;50.288;10.966;2023-09-07T13:19:03;4.70;;;3.00;;
29500;SDS011;16450;50.288;10.966;2023-09-07T13:22:06;2.67;;;2.25;;
29500;SDS011;16450;50.288;10.966;2023-09-07T13:25:11;3.75;;;2.22;;
29500;SDS011;16450;50.288;10.966;2023-09-07T13:28:12;3.50;;;2.10;;
29500;SDS011;16450;50.288;10.966;2023-09-07T13:31:14;2.80;;;2.42;;
29500;SDS011;16450;50.288;10.966;2023-09-07T13:34:16;3.58;;;2.30;;
29500;SDS011;16450;50.288;10.966;2023-09-07T13:37:18;5.68;;;2.10;;
29500;SDS011;16450;50.288;10.966;2023-09-07T13:40:21;3.53;;;2.08;;
29500;SDS011;16450;50.288;10.966;2023-09-07T13:43:25;2.75;;;2.00;;
29500;SDS011;16450;50.288;10.966;2023-09-07T13:46:27;4.05;;;2.17;;
29500;SDS011;16450;50.288;10.966;2023-09-07T13:49:30;2.30;;;2.08;;
29500;SDS011;16450;50.288;10.966;2023-09-07T13:52:32;3.83;;;2.13;;
29500;SDS011;16450;50.288;10.966;2023-09-07T13:55:34;3.72;;;2.30;;
29500;SDS011;16450;50.288;10.966;2023-09-07T13:58:36;4.10;;;1.90;;
29500;SDS011;16450;50.288;10.966;2023-09-07T14:01:38;2.38;;;2.17;;
29500;SDS011;16450;50.288;10.966;2023-09-07T14:04:40;2.75;;;2.10;;
29500;SDS011;16450;50.288;10.966;2023-09-07T14:07:42;3.90;;;2.20;;
29500;SDS011;16450;50.288;10.966;2023-09-07T14:10:43;3.58;;;2.10;;
29500;SDS011;16450;50.288;10.966;2023-09-07T14:13:47;2.97;;;2.17;;
29500;SDS011;16450;50.288;10.966;2023-09-07T14:16:51;4.82;;;2.20;;
29500;SDS011;16450;50.288;10.966;2023-09-07T14:19:58;3.45;;;2.13;;
29500;SDS011;16450;50.288;10.966;2023-09-07T14:22:59;3.63;;;2.15;;
29500;SDS011;16450;50.288;10.966;2023-09-07T14:26:02;2.53;;;2.10;;
29500;SDS011;16450;50.288;10.966;2023-09-07T14:29:03;3.08;;;2.28;;
29500;SDS011;16450;50.288;10.966;2023-09-07T14:32:06;3.15;;;2.10;;
29500;SDS011;16450;50.288;10.966;2023-09-07T14:35:08;3.15;;;2.20;;
29500;SDS011;16450;50.288;10.966;2023-09-07T14:38:10;2.80;;;2.50;;
29500;SDS011;16450;50.288;10.966;2023-09-07T14:41:12;2.45;;;2.25;;
29500;SDS011;16450;50.288;10.966;2023-09-07T14:44:22;2.50;;;2.20;;
29500;SDS011;16450;50.288;10.966;2023-09-07T14:47:24;3.22;;;2.33;;
29500;SDS011;16450;50.288;10.966;2023-09-07T14:50:27;6.35;;;2.30;;
29500;SDS011;16450;50.288;10.966;2023-09-07T14:53:29;4.80;;;2.13;;
29500;SDS011;16450;50.288;10.966;2023-09-07T14:56:31;3.28;;;2.20;;
29500;SDS011;16450;50.288;10.966;2023-09-07T14:59:36;3.90;;;2.40;;
29500;SDS011;16450;50.288;10.966;2023-09-07T15:02:40;3.95;;;2.30;;
29500;SDS011;16450;50.288;10.966;2023-09-07T15:05:42;3.95;;;2.33;;
29500;SDS011;16450;50.288;10.966;2023-09-07T15:08:44;5.60;;;2.35;;
29500;SDS011;16450;50.288;10.966;2023-09-07T15:11:46;2.50;;;2.15;;
29500;SDS011;16450;50.288;10.966;2023-09-07T15:14:48;2.53;;;2.33;;
29500;SDS011;16450;50.288;10.966;2023-09-07T15:17:50;2.63;;;2.15;;
29500;SDS011;16450;50.288;10.966;2023-09-07T15:20:52;3.63;;;2.40;;
29500;SDS011;16450;50.288;10.966;2023-09-07T15:23:55;4.68;;;2.15;;
29500;SDS011;16450;50.288;10.966;2023-09-07T15:26:56;5.82;;;2.60;;
29500;SDS011;16450;50.288;10.966;2023-09-07T15:29:58;3.75;;;2.10;;
29500;SDS011;16450;50.288;10.966;2023-09-07T15:33:00;4.15;;;2.40;;
29500;SDS011;16450;50.288;10.966;2023-09-07T15:36:02;3.97;;;2.20;;
29500;SDS011;16450;50.288;10.966;2023-09-07T15:39:04;2.70;;;2.20;;
29500;SDS011;16450;50.288;10.966;2023-09-07T15:42:06;3.80;;;2.70;;
29500;SDS011;16450;50.288;10.966;2023-09-07T15:45:08;3.15;;;2.10;;
29500;SDS011;16450;50.288;10.966;2023-09-07T15:48:11;4.13;;;2.47;;
29500;SDS011;16450;50.288;10.966;2023-09-07T15:51:13;3.42;;;2.30;;
29500;SDS011;16450;50.288;10.966;2023-09-07T15:54:15;2.80;;;2.25;;
29500;SDS011;16450;50.288;10.966;2023-09-07T15:57:16;2.70;;;2.28;;
29500;SDS011;16450;50.288;10.966;2023-09-07T16:00:18;3.65;;;2.30;;
29500;SDS011;16450;50.288;10.966;2023-09-07T16:03:20;2.92;;;2.28;;
29500;SDS011;16450;50.288;10.966;2023-09-07T16:06:22;3.20;;;2.33;;
29500;SDS011;16450;50.288;10.966;2023-09-07T16:09:24;2.78;;;2.30;;
29500;SDS011;16450;50.288;10.966;2023-09-07T16:12:26;5.45;;;2.22;;
29500;SDS011;16450;50.288;10.966;2023-09-07T16:15:28;3.25;;;2.40;;
29500;SDS011;16450;50.288;10.966;2023-09-07T16:18:30;4.57;;;2.45;;
29500;SDS011;16450;50.288;10.966;2023-09-07T16:21:32;5.28;;;2.53;;
29500;SDS011;16450;50.288;10.966;2023-09-07T16:24:34;3.08;;;2.20;;
29500;SDS011;16450;50.288;10.966;2023-09-07T16:27:36;2.72;;;2.08;;
29500;SDS011;16450;50.288;10.966;2023-09-07T16:30:42;2.95;;;2.40;;
29500;SDS011;16450;50.288;10.966;2023-09-07T16:33:43;5.65;;;2.42;;
29500;SDS011;16450;50.288;10.966;2023-09-07T16:36:45;2.90;;;2.58;;
29500;SDS011;16450;50.288;10.966;2023-09-07T16:39:49;4.78;;;2.45;;
29500;SDS011;16450;50.288;10.966;2023-09-07T16:42:53;5.32;;;2.42;;
29500;SDS011;16450;50.288;10.966;2023-09-07T16:46:01;4.30;;;2.67;;
29500;SDS011;16450;50.288;10.966;2023-09-07T16:49:05;4.10;;;2.35;;
29500;SDS011;16450;50.288;10.966;2023-09-07T16:52:07;4.82;;;2.70;;
29500;SDS011;16450;50.288;10.966;2023-09-07T16:55:09;3.97;;;2.70;;
29500;SDS011;16450;50.288;10.966;2023-09-07T16:58:11;4.03;;;2.70;;
29500;SDS011;16450;50.288;10.966;2023-09-07T17:01:12;7.68;;;2.58;;
29500;SDS011;16450;50.288;10.966;2023-09-07T17:04:22;8.52;;;2.78;;
29500;SDS011;16450;50.288;10.966;2023-09-07T17:07:25;7.18;;;3.00;;
29500;SDS011;16450;50.288;10.966;2023-09-07T17:10:27;4.68;;;2.95;;
29500;SDS011;16450;50.288;10.966;2023-09-07T17:13:29;3.10;;;2.50;;
29500;SDS011;16450;50.288;10.966;2023-09-07T17:16:31;3.20;;;2.38;;
29500;SDS011;16450;50.288;10.966;2023-09-07T17:19:33;4.80;;;2.80;;
29500;SDS011;16450;50.288;10.966;2023-09-07T17:22:35;4.22;;;2.50;;
29500;SDS011;16450;50.288;10.966;2023-09-07T17:25:37;4.45;;;2.50;;
29500;SDS011;16450;50.288;10.966;2023-09-07T17:28:38;5.60;;;2.80;;
29500;SDS011;16450;50.288;10.966;2023-09-07T17:31:40;3.05;;;2.50;;
29500;SDS011;16450;50.288;10.966;2023-09-07T17:34:42;3.92;;;2.55;;
29500;SDS011;16450;50.288;10.966;2023-09-07T17:37:44;7.63;;;2.75;;
29500;SDS011;16450;50.288;10.966;2023-09-07T17:40:46;8.35;;;2.78;;
29500;SDS011;16450;50.288;10.966;2023-09-07T17:43:48;8.20;;;3.38;;
29500;SDS011;16450;50.288;10.966;2023-09-07T17:46:50;6.75;;;3.20;;
29500;SDS011;16450;50.288;10.966;2023-09-07T17:49:52;5.82;;;2.90;;
29500;SDS011;16450;50.288;10.966;2023-09-07T17:52:54;4.95;;;2.72;;
29500;SDS011;16450;50.288;10.966;2023-09-07T17:55:56;13.05;;;3.03;;
29500;SDS011;16450;50.288;10.966;2023-09-07T17:58:57;5.97;;;3.15;;
29500;SDS011;16450;50.288;10.966;2023-09-07T18:01:59;7.75;;;3.30;;